Time;durP1;ratioP1;P1;durP2;ratioP2;P2;SDS_P1;SDS_P2;PMS_P1;PMS_P2;Temp;Humidity;BMP_temperature;BMP_pressure;BME280_temperature;BME280_humidity;BME280_pressure;Samples;Min_cycle;Max_cycle;Signal;HPM_P1;HPM_P2
2021/07/29 00:01:34;;;;;;;2.23;2.10;;;;;;;;;;4998970;28;20209;-81
2021/07/29 00:04:01;;;;;;;2.27;2.07;;;;;;;;;;4998864;28;20646;-81
2021/07/29 00:06:27;;;;;;;2.80;2.20;;;;;;;;;;5017015;28;20241;-80
2021/07/29 00:08:54;;;;;;;3.63;2.00;;;;;;;;;;4998820;28;20197;-81
2021/07/29 00:11:21;;;;;;;4.37;2.07;;;;;;;;;;4999007;28;20731;-81
2021/07/29 00:13:50;;;;;;;4.37;2.03;;;;;;;;;;4998617;28;20606;-81
2021/07/29 00:16:17;;;;;;;2.50;2.40;;;;;;;;;;5016284;28;20260;-81
2021/07/29 00:21:29;;;;;;;2.60;2.23;;;;;;;;;;5016778;28;20220;-82
2021/07/29 00:23:55;;;;;;;2.80;2.00;;;;;;;;;;5015687;28;20245;-81
2021/07/29 00:26:22;;;;;;;3.57;2.30;;;;;;;;;;4998783;28;20196;-81
2021/07/29 00:28:49;;;;;;;3.10;2.10;;;;;;;;;;4998957;28;20740;-81
2021/07/29 00:31:16;;;;;;;3.30;2.20;;;;;;;;;;5016292;28;20213;-81
2021/07/29 00:33:43;;;;;;;1.97;1.87;;;;;;;;;;5015991;28;20217;-81
2021/07/29 00:36:19;;;;;;;2.60;2.40;;;;;;;;;;5015594;28;20267;-82
2021/07/29 00:38:46;;;;;;;3.47;2.10;;;;;;;;;;5016354;28;20212;-81
2021/07/29 00:41:13;;;;;;;3.90;2.47;;;;;;;;;;5014829;28;20205;-81
2021/07/29 00:43:40;;;;;;;2.23;2.03;;;;;;;;;;5015932;28;20205;-81
2021/07/29 00:46:07;;;;;;;2.73;2.30;;;;;;;;;;4998667;28;20197;-81
2021/07/29 00:48:34;;;;;;;3.20;1.93;;;;;;;;;;5015607;28;20267;-82
2021/07/29 00:51:00;;;;;;;2.57;2.20;;;;;;;;;;5016144;28;20260;-81
2021/07/29 00:53:29;;;;;;;2.73;2.13;;;;;;;;;;4997510;28;20854;-81
2021/07/29 00:55:56;;;;;;;2.17;2.07;;;;;;;;;;5016153;28;20681;-81
2021/07/29 00:58:22;;;;;;;2.37;2.23;;;;;;;;;;5015549;28;20247;-82
2021/07/29 01:00:49;;;;;;;2.50;2.30;;;;;;;;;;4997853;28;20233;-81
2021/07/29 01:03:16;;;;;;;6.77;2.43;;;;;;;;;;4998202;28;20271;-81
2021/07/29 01:05:42;;;;;;;3.00;2.17;;;;;;;;;;4998147;28;20224;-81
2021/07/29 01:08:10;;;;;;;3.67;2.40;;;;;;;;;;5014656;28;20975;-81
2021/07/29 01:10:38;;;;;;;2.57;2.30;;;;;;;;;;5014313;28;20703;-81
2021/07/29 01:13:04;;;;;;;2.57;2.40;;;;;;;;;;5015491;28;20228;-81
2021/07/29 01:15:31;;;;;;;6.13;2.40;;;;;;;;;;5015024;28;20241;-81
2021/07/29 01:18:01;;;;;;;2.60;2.27;;;;;;;;;;5015551;28;20244;-81
2021/07/29 01:20:29;;;;;;;2.43;2.27;;;;;;;;;;5015498;28;20240;-81
2021/07/29 01:22:56;;;;;;;2.60;2.50;;;;;;;;;;5015518;28;20216;-81
2021/07/29 01:25:23;;;;;;;2.60;2.40;;;;;;;;;;5015394;28;20213;-81
2021/07/29 01:27:50;;;;;;;2.67;2.40;;;;;;;;;;5015163;28;20212;-81
2021/07/29 01:30:16;;;;;;;2.70;2.50;;;;;;;;;;5013880;28;20731;-81
2021/07/29 01:32:43;;;;;;;2.63;2.53;;;;;;;;;;5015430;28;20708;-81
2021/07/29 01:35:10;;;;;;;2.93;2.50;;;;;;;;;;5015313;28;20181;-81
2021/07/29 01:37:39;;;;;;;3.23;2.53;;;;;;;;;;5015126;28;20233;-82
2021/07/29 01:40:06;;;;;;;3.13;2.83;;;;;;;;;;4997054;28;20209;-81
2021/07/29 01:42:33;;;;;;;2.67;2.47;;;;;;;;;;5014817;28;20188;-82
2021/07/29 01:44:59;;;;;;;3.73;2.23;;;;;;;;;;5014999;28;20236;-81
2021/07/29 01:47:26;;;;;;;2.87;2.60;;;;;;;;;;5014104;28;20669;-81
2021/07/29 01:49:53;;;;;;;4.93;2.90;;;;;;;;;;5013017;28;20244;-81
2021/07/29 01:52:20;;;;;;;3.60;2.77;;;;;;;;;;5013231;28;20604;-81
2021/07/29 01:54:48;;;;;;;3.10;2.70;;;;;;;;;;5014494;28;20235;-81
2021/07/29 01:57:15;;;;;;;3.53;2.50;;;;;;;;;;5014650;28;20264;-81
2021/07/29 01:59:42;;;;;;;3.53;2.60;;;;;;;;;;5014968;28;20185;-81
2021/07/29 02:02:08;;;;;;;4.27;2.43;;;;;;;;;;5014645;28;20213;-81
2021/07/29 02:04:35;;;;;;;4.63;2.60;;;;;;;;;;5013704;28;20189;-81
2021/07/29 02:07:02;;;;;;;2.37;2.23;;;;;;;;;;5014183;28;20277;-82
2021/07/29 02:09:28;;;;;;;2.63;2.33;;;;;;;;;;4997139;28;20715;-81
2021/07/29 02:11:56;;;;;;;2.63;2.43;;;;;;;;;;5014212;28;20241;-81
2021/07/29 02:14:24;;;;;;;2.93;2.73;;;;;;;;;;5014449;28;20220;-81
2021/07/29 02:16:51;;;;;;;3.17;2.43;;;;;;;;;;4996489;28;20248;-81
2021/07/29 02:19:17;;;;;;;5.27;2.33;;;;;;;;;;5012413;28;20197;-81
2021/07/29 02:21:44;;;;;;;6.90;3.57;;;;;;;;;;5014119;28;20248;-81
2021/07/29 02:24:11;;;;;;;4.37;2.70;;;;;;;;;;4996721;28;20209;-81
2021/07/29 02:26:38;;;;;;;3.47;2.43;;;;;;;;;;4996556;28;20201;-82
2021/07/29 02:29:06;;;;;;;2.60;2.40;;;;;;;;;;5014462;28;20188;-81
2021/07/29 02:31:32;;;;;;;5.73;2.60;;;;;;;;;;5014000;28;20217;-82
2021/07/29 02:33:59;;;;;;;2.50;2.30;;;;;;;;;;4996597;28;20209;-81
2021/07/29 02:36:26;;;;;;;4.87;2.57;;;;;;;;;;4996416;28;20192;-81
2021/07/29 02:38:52;;;;;;;4.63;2.50;;;;;;;;;;4996087;28;20216;-81
2021/07/29 02:41:20;;;;;;;2.40;2.30;;;;;;;;;;5012288;28;20209;-81
2021/07/29 02:43:46;;;;;;;3.07;2.40;;;;;;;;;;5013005;28;20236;-81
2021/07/29 02:46:14;;;;;;;4.57;2.93;;;;;;;;;;5013942;28;20237;-81
2021/07/29 02:48:41;;;;;;;2.63;2.40;;;;;;;;;;4996150;28;20770;-81
2021/07/29 02:51:08;;;;;;;5.10;2.63;;;;;;;;;;5013976;28;20251;-81
2021/07/29 02:53:34;;;;;;;3.10;2.40;;;;;;;;;;4995721;28;20208;-80
2021/07/29 02:56:02;;;;;;;2.37;2.27;;;;;;;;;;5013614;28;20213;-81
2021/07/29 02:58:29;;;;;;;3.30;2.50;;;;;;;;;;4996106;28;20248;-81
2021/07/29 03:00:56;;;;;;;3.40;2.57;;;;;;;;;;5013189;28;20673;-81
2021/07/29 03:03:24;;;;;;;2.47;2.27;;;;;;;;;;5011889;28;20652;-81
2021/07/29 03:05:50;;;;;;;3.37;2.40;;;;;;;;;;4996102;28;20208;-81
2021/07/29 03:08:17;;;;;;;2.67;2.43;;;;;;;;;;5013720;28;20174;-81
2021/07/29 03:10:45;;;;;;;3.03;2.80;;;;;;;;;;5013327;28;20224;-80
2021/07/29 03:13:12;;;;;;;2.50;2.30;;;;;;;;;;4995594;28;20209;-81
2021/07/29 03:15:38;;;;;;;3.20;2.50;;;;;;;;;;5013273;28;20244;-81
2021/07/29 03:18:05;;;;;;;4.17;2.73;;;;;;;;;;5013107;28;20271;-81
2021/07/29 03:20:33;;;;;;;7.50;3.10;;;;;;;;;;5013246;28;20247;-81
2021/07/29 03:23:00;;;;;;;2.47;2.37;;;;;;;;;;4995399;28;20232;-81
2021/07/29 03:25:26;;;;;;;2.43;2.33;;;;;;;;;;5013463;28;20205;-80
2021/07/29 03:27:53;;;;;;;2.80;2.60;;;;;;;;;;5012792;28;20229;-80
2021/07/29 03:30:20;;;;;;;2.87;2.67;;;;;;;;;;4995866;28;20205;-81
2021/07/29 03:32:46;;;;;;;3.10;2.33;;;;;;;;;;5017356;28;20209;-81
2021/07/29 03:35:13;;;;;;;2.70;2.50;;;;;;;;;;5017077;28;20251;-80
2021/07/29 03:37:41;;;;;;;3.33;2.73;;;;;;;;;;5017413;28;20224;-80
2021/07/29 03:40:08;;;;;;;3.10;2.80;;;;;;;;;;4999722;28;20664;-80
2021/07/29 03:42:35;;;;;;;2.43;2.33;;;;;;;;;;5016870;28;20244;-79
2021/07/29 03:45:02;;;;;;;2.83;2.63;;;;;;;;;;5016596;28;20241;-80
2021/07/29 03:47:29;;;;;;;3.53;2.63;;;;;;;;;;4998988;28;20201;-80
2021/07/29 03:49:56;;;;;;;3.20;2.50;;;;;;;;;;5016868;28;20700;-80
2021/07/29 03:52:22;;;;;;;3.60;2.53;;;;;;;;;;5017092;28;20209;-80
2021/07/29 03:54:51;;;;;;;3.67;2.50;;;;;;;;;;5016857;28;20219;-80
2021/07/29 03:57:18;;;;;;;2.53;2.43;;;;;;;;;;4999277;28;20240;-80
2021/07/29 03:59:45;;;;;;;3.47;2.80;;;;;;;;;;5016740;28;20240;-79
2021/07/29 04:02:11;;;;;;;4.23;3.10;;;;;;;;;;5015974;28;20217;-79
2021/07/29 04:04:39;;;;;;;2.60;2.43;;;;;;;;;;5016748;28;20215;-79
2021/07/29 04:07:06;;;;;;;4.97;2.47;;;;;;;;;;4999095;28;20229;-78
2021/07/29 04:09:33;;;;;;;2.63;2.43;;;;;;;;;;5016371;28;20240;-79
2021/07/29 04:12:01;;;;;;;3.77;2.40;;;;;;;;;;5015935;28;20240;-81
2021/07/29 04:14:28;;;;;;;6.50;2.43;;;;;;;;;;5015115;28;20669;-80
2021/07/29 04:16:55;;;;;;;2.87;2.67;;;;;;;;;;5014985;28;20228;-80
2021/07/29 04:19:21;;;;;;;2.50;2.30;;;;;;;;;;5016262;28;20208;-81
2021/07/29 04:21:48;;;;;;;2.80;2.60;;;;;;;;;;4999098;28;20193;-82
2021/07/29 04:24:15;;;;;;;2.40;2.20;;;;;;;;;;5016398;28;20177;-82
2021/07/29 04:26:41;;;;;;;3.90;2.73;;;;;;;;;;5016116;28;20212;-81
2021/07/29 04:29:10;;;;;;;2.77;2.47;;;;;;;;;;5014621;28;20229;-80
2021/07/29 04:31:36;;;;;;;3.77;2.47;;;;;;;;;;4998341;28;20237;-83
2021/07/29 04:34:03;;;;;;;3.80;2.30;;;;;;;;;;5016164;28;20201;-83
2021/07/29 04:36:30;;;;;;;2.97;2.57;;;;;;;;;;5014515;28;20205;-82
2021/07/29 04:38:56;;;;;;;4.07;2.70;;;;;;;;;;4998473;28;20279;-84
2021/07/29 04:41:23;;;;;;;2.90;2.63;;;;;;;;;;5014974;28;20209;-82
2021/07/29 04:43:50;;;;;;;2.77;2.40;;;;;;;;;;4998877;28;20612;-84
2021/07/29 04:46:18;;;;;;;4.53;2.90;;;;;;;;;;4998855;28;20556;-83
2021/07/29 04:48:44;;;;;;;2.60;2.30;;;;;;;;;;5002303;28;20234;-85
2021/07/29 04:51:12;;;;;;;3.33;2.80;;;;;;;;;;4997018;28;20226;-85
2021/07/29 04:53:39;;;;;;;3.47;2.20;;;;;;;;;;4979918;28;20551;-82
2021/07/29 04:56:06;;;;;;;2.10;2.00;;;;;;;;;;4980177;28;20869;-84
2021/07/29 04:58:33;;;;;;;2.67;2.47;;;;;;;;;;4979585;28;20276;-84
2021/07/29 05:01:03;;;;;;;3.93;2.40;;;;;;;;;;4997113;28;20182;-83
2021/07/29 05:03:31;;;;;;;3.27;2.73;;;;;;;;;;4978998;28;20208;-84
2021/07/29 05:06:00;;;;;;;4.27;2.53;;;;;;;;;;4979206;28;20233;-85
2021/07/29 05:08:26;;;;;;;2.50;2.30;;;;;;;;;;4978746;28;20229;-86
2021/07/29 05:10:53;;;;;;;2.40;2.30;;;;;;;;;;4978477;28;20244;-84
2021/07/29 05:13:20;;;;;;;2.73;2.50;;;;;;;;;;4996210;28;20218;-83
2021/07/29 05:15:46;;;;;;;3.17;2.30;;;;;;;;;;4978752;28;20221;-83
2021/07/29 05:18:13;;;;;;;2.43;2.23;;;;;;;;;;4978950;28;20274;-84
2021/07/29 05:20:41;;;;;;;3.03;2.73;;;;;;;;;;4996349;28;20867;-83
2021/07/29 05:23:08;;;;;;;6.10;3.33;;;;;;;;;;4996064;28;20689;-83
2021/07/29 05:25:35;;;;;;;3.47;2.37;;;;;;;;;;4978364;28;20229;-83
2021/07/29 05:28:02;;;;;;;3.63;2.47;;;;;;;;;;4978983;28;20198;-84
2021/07/29 05:30:29;;;;;;;2.80;2.60;;;;;;;;;;4978442;28;20212;-84
2021/07/29 05:32:55;;;;;;;3.07;2.70;;;;;;;;;;4978437;28;20194;-83
2021/07/29 05:35:22;;;;;;;2.53;2.27;;;;;;;;;;4995520;28;20253;-84
2021/07/29 05:37:50;;;;;;;3.87;2.70;;;;;;;;;;4978063;28;20209;-84
2021/07/29 05:40:17;;;;;;;5.10;2.50;;;;;;;;;;4995366;28;20244;-84
2021/07/29 05:42:43;;;;;;;3.90;2.30;;;;;;;;;;4977723;28;20201;-82
2021/07/29 05:45:10;;;;;;;2.80;2.60;;;;;;;;;;4977879;28;20229;-84
2021/07/29 05:47:37;;;;;;;3.20;2.30;;;;;;;;;;4998272;28;20260;-81
2021/07/29 05:50:04;;;;;;;5.83;2.30;;;;;;;;;;5014711;28;20251;-83
2021/07/29 05:52:31;;;;;;;2.37;2.23;;;;;;;;;;5014974;28;20672;-83
2021/07/29 05:54:59;;;;;;;3.00;2.67;;;;;;;;;;4996502;28;20665;-84
2021/07/29 05:57:25;;;;;;;2.83;2.27;;;;;;;;;;5014810;28;20232;-83
2021/07/29 05:59:52;;;;;;;6.63;2.47;;;;;;;;;;5012914;28;20252;-83
2021/07/29 06:02:19;;;;;;;3.23;2.23;;;;;;;;;;5014539;28;20271;-83
2021/07/29 06:04:45;;;;;;;6.77;2.70;;;;;;;;;;5013041;28;20209;-83
2021/07/29 06:07:12;;;;;;;6.37;2.53;;;;;;;;;;4996698;28;20208;-83
2021/07/29 06:09:38;;;;;;;2.40;2.30;;;;;;;;;;5012872;28;20201;-82
2021/07/29 06:12:07;;;;;;;2.40;2.20;;;;;;;;;;5014250;28;20245;-83
2021/07/29 06:14:33;;;;;;;2.77;2.30;;;;;;;;;;4996144;28;20209;-82
2021/07/29 06:17:00;;;;;;;2.43;2.23;;;;;;;;;;4996737;28;20568;-82
2021/07/29 06:19:31;;;;;;;4.43;2.73;;;;;;;;;;5013188;28;20294;-82
2021/07/29 06:21:57;;;;;;;2.63;2.30;;;;;;;;;;5014652;28;20207;-84
2021/07/29 06:24:24;;;;;;;3.43;2.33;;;;;;;;;;4996510;28;20188;-82
2021/07/29 06:26:51;;;;;;;2.57;2.37;;;;;;;;;;5014026;28;20247;-83
2021/07/29 06:29:19;;;;;;;5.70;2.40;;;;;;;;;;5013725;28;20593;-83
2021/07/29 06:31:46;;;;;;;2.63;2.10;;;;;;;;;;4996222;28;20566;-82
2021/07/29 06:34:13;;;;;;;2.53;2.33;;;;;;;;;;5013717;28;20240;-83
2021/07/29 06:36:39;;;;;;;4.67;2.17;;;;;;;;;;5013829;28;20236;-82
2021/07/29 06:39:06;;;;;;;5.70;1.83;;;;;;;;;;5013797;28;20236;-84
2021/07/29 06:41:33;;;;;;;2.77;2.53;;;;;;;;;;5014013;28;20185;-82
2021/07/29 06:44:00;;;;;;;4.10;2.10;;;;;;;;;;4995929;28;20212;-84
2021/07/29 06:46:28;;;;;;;3.00;2.10;;;;;;;;;;5012571;28;20228;-82
2021/07/29 06:48:55;;;;;;;5.33;2.80;;;;;;;;;;5013526;28;20256;-82
2021/07/29 06:51:21;;;;;;;5.63;2.30;;;;;;;;;;4996243;28;20515;-83
2021/07/29 06:53:49;;;;;;;6.53;2.23;;;;;;;;;;5013914;28;20181;-82
2021/07/29 06:56:16;;;;;;;4.87;2.20;;;;;;;;;;5012096;28;20204;-84
2021/07/29 06:58:43;;;;;;;2.33;1.90;;;;;;;;;;5011862;28;20318;-83
2021/07/29 07:01:09;;;;;;;2.40;2.20;;;;;;;;;;4996241;28;20657;-84
2021/07/29 07:03:37;;;;;;;5.30;2.13;;;;;;;;;;5012269;28;20201;-81
2021/07/29 07:06:05;;;;;;;3.00;2.00;;;;;;;;;;5012855;28;20240;-90
2021/07/29 07:08:31;;;;;;;4.67;2.20;;;;;;;;;;5014512;28;20216;-89
2021/07/29 07:10:58;;;;;;;2.40;1.83;;;;;;;;;;5014532;28;20205;-84
2021/07/29 07:13:25;;;;;;;1.90;1.80;;;;;;;;;;5012872;28;20595;-83
2021/07/29 07:15:51;;;;;;;5.93;2.30;;;;;;;;;;5012692;28;20715;-87
2021/07/29 07:18:18;;;;;;;2.73;2.20;;;;;;;;;;5013429;28;20251;-85
2021/07/29 07:20:46;;;;;;;4.20;1.90;;;;;;;;;;4996198;28;20259;-86
2021/07/29 07:23:13;;;;;;;2.00;1.90;;;;;;;;;;4996484;28;20204;-84
2021/07/29 07:25:40;;;;;;;7.73;2.23;;;;;;;;;;4996118;28;20197;-85
2021/07/29 07:28:06;;;;;;;3.80;2.13;;;;;;;;;;5011985;28;20209;-83
2021/07/29 07:30:33;;;;;;;3.13;2.07;;;;;;;;;;4995345;28;20260;-86
2021/07/29 07:33:01;;;;;;;2.40;2.20;;;;;;;;;;4995881;28;20251;-85
2021/07/29 07:35:28;;;;;;;2.23;2.07;;;;;;;;;;5012176;28;20243;-84
2021/07/29 07:37:56;;;;;;;2.23;2.03;;;;;;;;;;4996237;28;20200;-82
2021/07/29 07:40:22;;;;;;;2.37;2.10;;;;;;;;;;5013564;28;20272;-84
2021/07/29 07:42:50;;;;;;;2.00;1.90;;;;;;;;;;5013302;28;20213;-84
2021/07/29 07:45:16;;;;;;;2.93;1.90;;;;;;;;;;4995792;28;20189;-85
2021/07/29 07:47:43;;;;;;;2.07;1.97;;;;;;;;;;4991637;28;20657;-83
2021/07/29 07:50:10;;;;;;;2.30;2.10;;;;;;;;;;4976013;28;20221;-82
2021/07/29 07:52:37;;;;;;;6.37;2.20;;;;;;;;;;4976533;28;20264;-85
2021/07/29 07:55:05;;;;;;;2.38;2.10;;;;;;;;;;4976581;28;20202;-84
2021/07/29 07:57:32;;;;;;;5.80;1.90;;;;;;;;;;4992511;28;20206;-84
2021/07/29 07:59:59;;;;;;;3.55;1.98;;;;;;;;;;4993343;28;20233;-84
2021/07/29 08:02:26;;;;;;;2.70;2.05;;;;;;;;;;4993597;28;20229;-84
2021/07/29 08:04:52;;;;;;;2.43;1.77;;;;;;;;;;4976179;28;20662;-85
2021/07/29 08:07:19;;;;;;;2.25;2.10;;;;;;;;;;4975686;28;20241;-86
2021/07/29 08:09:46;;;;;;;2.30;2.10;;;;;;;;;;4993485;28;20174;-83
2021/07/29 08:12:14;;;;;;;3.35;2.47;;;;;;;;;;4993569;28;20217;-82
2021/07/29 08:14:41;;;;;;;2.97;2.20;;;;;;;;;;4993410;28;20182;-84
2021/07/29 08:17:07;;;;;;;3.95;1.98;;;;;;;;;;4977132;28;20209;-84
2021/07/29 08:19:34;;;;;;;2.33;1.75;;;;;;;;;;4997176;28;20241;-84
2021/07/29 08:22:01;;;;;;;3.03;1.67;;;;;;;;;;4997507;28;20211;-84
2021/07/29 08:24:27;;;;;;;2.10;2.00;;;;;;;;;;4979267;28;20746;-85
2021/07/29 08:26:54;;;;;;;2.80;1.90;;;;;;;;;;4979461;28;20206;-82
2021/07/29 08:29:22;;;;;;;2.03;1.92;;;;;;;;;;4979509;28;20264;-84
2021/07/29 08:31:49;;;;;;;2.22;2.00;;;;;;;;;;4979474;28;20193;-86
2021/07/29 08:34:15;;;;;;;2.55;2.22;;;;;;;;;;4996929;28;20237;-85
2021/07/29 08:36:42;;;;;;;2.20;1.80;;;;;;;;;;4996562;28;20693;-81
2021/07/29 08:39:09;;;;;;;4.55;1.98;;;;;;;;;;4979394;28;20225;-83
2021/07/29 08:41:36;;;;;;;2.40;2.03;;;;;;;;;;4979220;28;20205;-87
2021/07/29 08:44:04;;;;;;;1.98;1.80;;;;;;;;;;4996660;28;20248;-89
2021/07/29 08:46:35;;;;;;;2.60;1.83;;;;;;;;;;4980941;28;20206;-89
2021/07/29 08:49:02;;;;;;;2.10;1.90;;;;;;;;;;4991098;28;20230;-86
2021/07/29 08:51:29;;;;;;;1.73;1.63;;;;;;;;;;4979899;28;20706;-88
2021/07/29 08:53:57;;;;;;;2.70;2.10;;;;;;;;;;4997441;28;20189;-86
2021/07/29 08:56:24;;;;;;;3.30;2.03;;;;;;;;;;4979559;28;20202;-87
2021/07/29 08:58:51;;;;;;;2.17;1.92;;;;;;;;;;4996298;28;20241;-86
2021/07/29 09:01:17;;;;;;;3.08;1.80;;;;;;;;;;4997856;28;20257;-89
2021/07/29 09:03:47;;;;;;;3.33;2.00;;;;;;;;;;4979484;28;20213;-85
2021/07/29 09:06:14;;;;;;;2.13;1.88;;;;;;;;;;4996572;28;20186;-84
2021/07/29 09:08:45;;;;;;;4.20;2.00;;;;;;;;;;4996007;28;20275;-88
2021/07/29 09:11:32;;;;;;;2.15;1.92;;;;;;;;;;4997093;28;20178;-84
2021/07/29 09:14:04;;;;;;;2.20;2.10;;;;;;;;;;4994691;28;20241;-84
2021/07/29 09:16:33;;;;;;;3.60;2.10;;;;;;;;;;4978978;28;20232;-81
2021/07/29 09:19:02;;;;;;;2.88;1.98;;;;;;;;;;4979009;28;20210;-82
2021/07/29 09:21:28;;;;;;;1.90;1.67;;;;;;;;;;4978668;28;20274;-84
2021/07/29 09:24:08;;;;;;;5.80;2.28;;;;;;;;;;4995185;28;20206;-85
2021/07/29 09:26:53;;;;;;;3.00;2.13;;;;;;;;;;4979146;28;20244;-86
2021/07/29 09:29:21;;;;;;;1.90;1.80;;;;;;;;;;4994078;28;20205;-84
2021/07/29 09:31:48;;;;;;;1.83;1.73;;;;;;;;;;4995961;28;20194;-84
2021/07/29 09:34:16;;;;;;;4.72;1.90;;;;;;;;;;4978895;28;20213;-87
2021/07/29 09:36:42;;;;;;;2.47;1.90;;;;;;;;;;4997215;28;20553;-87
2021/07/29 09:39:21;;;;;;;3.33;1.88;;;;;;;;;;4997464;28;20218;-86
2021/07/29 09:41:50;;;;;;;2.08;1.73;;;;;;;;;;4995952;28;20233;-86
2021/07/29 09:44:36;;;;;;;2.13;1.70;;;;;;;;;;4996741;28;20214;-88
2021/07/29 09:47:03;;;;;;;1.90;1.80;;;;;;;;;;4995548;28;20209;-87
2021/07/29 09:49:32;;;;;;;2.13;1.90;;;;;;;;;;4996333;28;20229;-87
2021/07/29 09:51:59;;;;;;;1.80;1.70;;;;;;;;;;5014527;28;20661;-85
2021/07/29 09:54:25;;;;;;;1.92;1.83;;;;;;;;;;5015395;28;20217;-86
2021/07/29 09:56:52;;;;;;;1.80;1.75;;;;;;;;;;5015451;28;20189;-87
2021/07/29 09:59:19;;;;;;;2.15;1.95;;;;;;;;;;5015293;28;20220;-86
2021/07/29 10:01:46;;;;;;;3.65;1.83;;;;;;;;;;5015400;28;20236;-83
2021/07/29 10:04:14;;;;;;;2.33;1.80;;;;;;;;;;4999326;28;20541;-85
2021/07/29 10:06:42;;;;;;;2.47;1.90;;;;;;;;;;4997796;28;20209;-82
2021/07/29 10:09:10;;;;;;;3.08;1.80;;;;;;;;;;4997693;28;20216;-87
2021/07/29 10:11:39;;;;;;;1.75;1.65;;;;;;;;;;5014920;28;20205;-85
2021/07/29 10:14:05;;;;;;;2.63;1.80;;;;;;;;;;5014637;28;20201;-83
2021/07/29 10:16:45;;;;;;;2.38;1.90;;;;;;;;;;5014807;28;20208;-82
2021/07/29 10:19:12;;;;;;;2.83;2.40;;;;;;;;;;4997213;28;20573;-85
2021/07/29 10:21:40;;;;;;;1.75;1.65;;;;;;;;;;5014962;28;20684;-84
2021/07/29 10:24:09;;;;;;;1.65;1.55;;;;;;;;;;5014909;28;20209;-84
2021/07/29 10:26:36;;;;;;;1.75;1.70;;;;;;;;;;5015359;28;20209;-84
2021/07/29 10:29:23;;;;;;;2.00;1.60;;;;;;;;;;5016405;28;20508;-86
2021/07/29 10:31:51;;;;;;;2.22;1.80;;;;;;;;;;5015946;28;20185;-83
2021/07/29 10:34:24;;;;;;;3.42;1.70;;;;;;;;;;4997499;28;20248;-86
2021/07/29 10:36:50;;;;;;;1.80;1.70;;;;;;;;;;4997702;28;20243;-88
2021/07/29 10:39:19;;;;;;;2.13;1.88;;;;;;;;;;4997963;28;20288;-88
2021/07/29 10:41:49;;;;;;;4.43;1.90;;;;;;;;;;4998047;28;20221;-86
2021/07/29 10:44:35;;;;;;;1.90;1.80;;;;;;;;;;4997858;28;20193;-87
2021/07/29 10:47:02;;;;;;;2.00;1.90;;;;;;;;;;5014545;28;20622;-87
2021/07/29 10:49:44;;;;;;;1.80;1.70;;;;;;;;;;4979367;28;20279;-86
2021/07/29 10:52:11;;;;;;;1.58;1.48;;;;;;;;;;4995608;28;20557;-85
2021/07/29 10:54:40;;;;;;;1.83;1.73;;;;;;;;;;4977251;28;20778;-84
2021/07/29 10:57:07;;;;;;;2.88;1.70;;;;;;;;;;4994750;28;20216;-85
2021/07/29 10:59:34;;;;;;;2.05;1.77;;;;;;;;;;4976826;28;20194;-84
2021/07/29 11:02:02;;;;;;;1.85;1.52;;;;;;;;;;4994736;28;20230;-85
2021/07/29 11:04:30;;;;;;;1.77;1.67;;;;;;;;;;4976976;28;20206;-84
2021/07/29 11:06:59;;;;;;;2.00;1.70;;;;;;;;;;4976620;28;20677;-86
2021/07/29 11:09:29;;;;;;;1.90;1.80;;;;;;;;;;4994346;28;20186;-83
2021/07/29 11:11:57;;;;;;;4.63;1.85;;;;;;;;;;4993941;28;20256;-84
2021/07/29 11:14:25;;;;;;;3.10;1.85;;;;;;;;;;4993924;28;20221;-84
2021/07/29 11:16:52;;;;;;;2.92;2.05;;;;;;;;;;4994809;28;20212;-84
2021/07/29 11:19:19;;;;;;;2.17;1.67;;;;;;;;;;4993442;28;20206;-86
2021/07/29 11:21:45;;;;;;;2.05;1.77;;;;;;;;;;4976885;28;20233;-82
2021/07/29 11:24:23;;;;;;;6.43;1.75;;;;;;;;;;4994091;28;20213;-84
2021/07/29 11:26:50;;;;;;;2.88;1.63;;;;;;;;;;4994043;28;20229;-85
2021/07/29 11:29:18;;;;;;;1.60;1.50;;;;;;;;;;4993776;28;20241;-83
2021/07/29 11:31:45;;;;;;;2.33;1.60;;;;;;;;;;4976332;28;20206;-83
2021/07/29 11:34:11;;;;;;;1.95;1.65;;;;;;;;;;4976237;28;20233;-83
2021/07/29 11:36:38;;;;;;;1.80;1.60;;;;;;;;;;4976801;28;20193;-83
2021/07/29 11:39:05;;;;;;;3.13;1.65;;;;;;;;;;4993767;28;20189;-84
2021/07/29 11:41:50;;;;;;;1.80;1.70;;;;;;;;;;4976155;28;20246;-83
2021/07/29 11:44:18;;;;;;;3.72;1.80;;;;;;;;;;4992213;28;20213;-83
2021/07/29 11:46:51;;;;;;;2.17;1.60;;;;;;;;;;4976316;28;20213;-84
2021/07/29 11:49:18;;;;;;;3.72;1.65;;;;;;;;;;4991958;28;20240;-83
2021/07/29 11:51:59;;;;;;;2.30;1.60;;;;;;;;;;4995358;28;20267;-83
2021/07/29 11:54:26;;;;;;;1.92;1.40;;;;;;;;;;5017319;28;20213;-87
2021/07/29 11:56:53;;;;;;;1.83;1.70;;;;;;;;;;4999499;28;20209;-84
2021/07/29 11:59:21;;;;;;;2.55;1.83;;;;;;;;;;5016326;28;20255;-84
2021/07/29 12:01:49;;;;;;;1.45;1.40;;;;;;;;;;4999682;28;20245;-84
2021/07/29 12:04:16;;;;;;;1.55;1.52;;;;;;;;;;5017667;28;20177;-85
2021/07/29 12:06:43;;;;;;;4.28;1.60;;;;;;;;;;4998590;28;20256;-83
2021/07/29 12:09:10;;;;;;;1.58;1.48;;;;;;;;;;4999355;28;20200;-84
2021/07/29 12:11:36;;;;;;;1.63;1.52;;;;;;;;;;4999526;28;20247;-84
2021/07/29 12:14:04;;;;;;;3.05;1.70;;;;;;;;;;4999751;28;20224;-83
2021/07/29 12:16:49;;;;;;;1.52;1.52;;;;;;;;;;4999606;28;20232;-85
2021/07/29 12:19:16;;;;;;;1.50;1.50;;;;;;;;;;5016887;28;20224;-84
2021/07/29 12:21:42;;;;;;;1.52;1.42;;;;;;;;;;5016892;28;20228;-84
2021/07/29 12:24:09;;;;;;;1.25;1.25;;;;;;;;;;5016032;28;20189;-85
2021/07/29 12:26:36;;;;;;;2.30;1.60;;;;;;;;;;5016933;28;20188;-83
2021/07/29 12:29:03;;;;;;;2.55;1.30;;;;;;;;;;5015829;28;20196;-84
2021/07/29 12:31:30;;;;;;;1.70;1.60;;;;;;;;;;4999264;28;20193;-85
2021/07/29 12:33:59;;;;;;;2.70;1.67;;;;;;;;;;5016696;28;20212;-84
2021/07/29 12:36:40;;;;;;;1.13;1.13;;;;;;;;;;4998799;28;20216;-84
2021/07/29 12:39:07;;;;;;;1.83;1.73;;;;;;;;;;5015357;28;20660;-84
2021/07/29 12:41:34;;;;;;;1.60;1.50;;;;;;;;;;5016622;28;20244;-84
2021/07/29 12:44:11;;;;;;;1.85;1.50;;;;;;;;;;4998884;28;20568;-84
2021/07/29 12:46:38;;;;;;;2.17;1.40;;;;;;;;;;5016474;28;20685;-85
2021/07/29 12:49:06;;;;;;;2.15;1.50;;;;;;;;;;5015869;28;20256;-83
2021/07/29 12:51:33;;;;;;;1.42;1.42;;;;;;;;;;5015860;28;20264;-81
2021/07/29 12:54:00;;;;;;;2.30;1.95;;;;;;;;;;5016087;28;20205;-84
2021/07/29 12:56:26;;;;;;;3.47;1.80;;;;;;;;;;5015711;28;20248;-85
2021/07/29 12:58:53;;;;;;;2.47;1.60;;;;;;;;;;5014042;28;20254;-79
2021/07/29 13:01:20;;;;;;;3.28;1.50;;;;;;;;;;5014106;28;20213;-83
2021/07/29 13:03:46;;;;;;;2.50;1.90;;;;;;;;;;5013329;28;20677;-84
2021/07/29 13:06:15;;;;;;;1.70;1.58;;;;;;;;;;5014895;28;20209;-86
2021/07/29 13:08:42;;;;;;;2.72;1.55;;;;;;;;;;5014487;28;20793;-80
2021/07/29 13:11:09;;;;;;;2.42;1.45;;;;;;;;;;5015177;28;20693;-81
2021/07/29 13:13:37;;;;;;;2.17;1.52;;;;;;;;;;4997762;28;20239;-80
2021/07/29 13:16:03;;;;;;;1.55;1.45;;;;;;;;;;5015527;28;20236;-82
2021/07/29 13:18:30;;;;;;;1.63;1.40;;;;;;;;;;5015156;28;20233;-82
2021/07/29 13:20:57;;;;;;;1.60;1.50;;;;;;;;;;5015145;28;20677;-83
2021/07/29 13:23:26;;;;;;;1.60;1.50;;;;;;;;;;5014988;28;20205;-81
2021/07/29 13:25:53;;;;;;;1.83;1.40;;;;;;;;;;5015496;28;20660;-81
2021/07/29 13:28:20;;;;;;;1.40;1.40;;;;;;;;;;5015184;28;20208;-83
2021/07/29 13:30:47;;;;;;;1.50;1.42;;;;;;;;;;4997265;28;20247;-81
2021/07/29 13:33:15;;;;;;;1.42;1.33;;;;;;;;;;5015225;28;20236;-81
2021/07/29 13:35:41;;;;;;;1.35;1.25;;;;;;;;;;5015146;28;20585;-85
2021/07/29 13:38:08;;;;;;;1.42;1.40;;;;;;;;;;5013589;28;20292;-83
2021/07/29 13:40:36;;;;;;;1.60;1.60;;;;;;;;;;5013602;28;20207;-81
2021/07/29 13:43:03;;;;;;;1.50;1.40;;;;;;;;;;5015349;28;20233;-82
2021/07/29 13:45:30;;;;;;;1.55;1.45;;;;;;;;;;4997222;28;20531;-82
2021/07/29 13:47:58;;;;;;;2.08;1.70;;;;;;;;;;5014765;28;20267;-82
2021/07/29 13:50:25;;;;;;;1.73;1.60;;;;;;;;;;5014746;28;20216;-81
2021/07/29 13:52:53;;;;;;;2.72;1.55;;;;;;;;;;5014324;28;20248;-87
2021/07/29 13:55:20;;;;;;;3.47;1.58;;;;;;;;;;5014664;28;20244;-86
2021/07/29 13:57:48;;;;;;;2.28;1.60;;;;;;;;;;5014628;28;20224;-82
2021/07/29 14:00:16;;;;;;;2.83;1.80;;;;;;;;;;5015056;28;20223;-83
2021/07/29 14:02:42;;;;;;;1.42;1.42;;;;;;;;;;4996583;28;20248;-83
2021/07/29 14:05:10;;;;;;;1.67;1.60;;;;;;;;;;4996560;28;20271;-81
2021/07/29 14:07:37;;;;;;;3.10;1.50;;;;;;;;;;4997025;28;20267;-81
2021/07/29 14:10:05;;;;;;;4.43;1.75;;;;;;;;;;4996543;28;20201;-82
2021/07/29 14:12:32;;;;;;;3.33;1.60;;;;;;;;;;4996407;28;20603;-83
2021/07/29 14:15:00;;;;;;;4.60;1.65;;;;;;;;;;4995689;28;20205;-84
2021/07/29 14:17:31;;;;;;;1.63;1.50;;;;;;;;;;4996618;28;20267;-83
2021/07/29 14:20:08;;;;;;;2.65;1.48;;;;;;;;;;4996426;28;20217;-84
2021/07/29 14:22:58;;;;;;;1.55;1.45;;;;;;;;;;4996343;28;20271;-81
2021/07/29 14:25:26;;;;;;;2.38;1.50;;;;;;;;;;5013974;28;20343;-82
2021/07/29 14:27:53;;;;;;;1.60;1.50;;;;;;;;;;5014522;28;20228;-81
2021/07/29 14:30:21;;;;;;;2.45;1.88;;;;;;;;;;5013990;28;20243;-82
2021/07/29 14:32:49;;;;;;;1.65;1.55;;;;;;;;;;5013948;28;20213;-84
2021/07/29 14:35:16;;;;;;;1.67;1.58;;;;;;;;;;5014497;28;20213;-85
2021/07/29 14:37:43;;;;;;;1.60;1.50;;;;;;;;;;4996173;28;20266;-82
2021/07/29 14:40:10;;;;;;;4.07;1.70;;;;;;;;;;4996547;28;20208;-85
2021/07/29 14:42:37;;;;;;;4.10;1.50;;;;;;;;;;5013827;28;20229;-84
2021/07/29 14:45:16;;;;;;;7.47;1.70;;;;;;;;;;5014040;28;20249;-86
2021/07/29 14:50:25;;;;;;;1.65;1.55;;;;;;;;;;4970971;28;20271;-85
2021/07/29 14:52:54;;;;;;;2.50;1.48;;;;;;;;;;5013630;28;20238;-86